5-Min.Temp.ØTemp.MaxTemp.MinLuftfeuchteLuftdruckRegenWindØWindböeMax.
00:00-2.1°C-2.0°C-2.2°C90%1025.8hPa0.0mm0.0km/h0.0km/h
00:05-2.0°C-1.9°C-2.1°C90%1025.7hPa0.0mm0.0km/h0.0km/h
00:10-2.2°C-2.1°C-2.2°C90%1025.7hPa0.0mm0.0km/h0.0km/h
00:15-2.2°C-2.1°C-2.2°C90%1025.6hPa0.0mm0.0km/h0.0km/h
00:20-2.2°C-2.1°C-2.2°C90%1025.7hPa0.0mm0.0km/h0.0km/h
00:25-2.2°C-2.1°C-2.3°C90%1025.6hPa0.0mm0.0km/h0.0km/h
00:30-2.2°C-2.2°C-2.3°C90%1025.7hPa0.0mm0.0km/h0.0km/h
00:35-2.1°C-2.1°C-2.2°C90%1025.6hPa0.0mm0.0km/h0.0km/h
00:40-2.1°C-2.1°C-2.1°C90%1025.6hPa0.0mm0.0km/h0.0km/h
00:45-2.2°C-2.1°C-2.3°C90%1025.6hPa0.0mm0.0km/h0.0km/h
00:50-2.3°C-2.3°C-2.3°C90%1025.6hPa0.0mm0.0km/h0.0km/h
00:55-2.3°C-2.3°C-2.3°C90%1025.5hPa0.0mm0.0km/h0.0km/h
01:00-2.4°C-2.3°C-2.4°C90%1025.5hPa0.0mm0.0km/h0.0km/h
01:05-2.4°C-2.3°C-2.4°C90%1025.5hPa0.0mm0.0km/h0.0km/h
01:10-2.5°C-2.4°C-2.6°C90%1025.5hPa0.0mm0.0km/h0.0km/h
01:15-2.6°C-2.4°C-2.8°C90%1025.5hPa0.0mm0.0km/h0.0km/h
01:20-2.9°C-2.8°C-2.9°C90%1025.4hPa0.0mm2.0km/h5.0km/h
01:25-2.7°C-2.6°C-2.8°C90%1025.5hPa0.0mm1.2km/h3.2km/h
01:30-2.8°C-2.7°C-2.9°C90%1025.5hPa0.0mm0.0km/h0.0km/h
01:35-2.9°C-2.9°C-2.9°C90%1025.5hPa0.0mm0.0km/h0.0km/h
01:40-2.9°C-2.9°C-3.0°C90%1025.5hPa0.0mm0.0km/h0.0km/h
01:45-3.1°C-2.9°C-3.1°C90%1025.5hPa0.0mm0.0km/h0.0km/h
01:50-3.1°C-3.1°C-3.2°C90%1025.5hPa0.0mm0.0km/h0.0km/h
01:55-3.2°C-3.2°C-3.3°C90%1025.5hPa0.0mm0.0km/h0.0km/h
02:00-3.1°C-3.0°C-3.2°C90%1025.4hPa0.0mm0.0km/h0.0km/h
02:05-2.9°C-2.9°C-2.9°C90%1025.3hPa0.0mm0.0km/h0.0km/h
02:10-2.9°C-2.8°C-2.9°C90%1025.2hPa0.0mm0.0km/h0.0km/h
02:15-2.9°C-2.8°C-2.9°C90%1025.2hPa0.0mm1.3km/h5.0km/h
02:20-2.9°C-2.9°C-3.0°C90%1025.3hPa0.0mm3.6km/h5.0km/h
02:30-3.3°C-3.3°C-3.3°C90%1025.2hPa0.0mm0.0km/h0.0km/h
02:35-3.3°C-3.2°C-3.3°C90%1025.2hPa0.0mm0.1km/h3.2km/h
02:40-3.2°C-3.1°C-3.2°C90%1025.1hPa0.0mm0.3km/h3.2km/h
02:45-3.2°C-3.1°C-3.2°C90%1025.1hPa0.0mm0.0km/h3.2km/h
02:50-3.0°C-2.9°C-3.2°C91%1025.1hPa0.0mm2.2km/h6.8km/h
02:55-3.1°C-2.9°C-3.3°C90%1025.1hPa0.0mm0.8km/h3.2km/h
03:00-3.3°C-3.3°C-3.3°C90%1025.0hPa0.0mm0.0km/h0.0km/h
03:05-3.3°C-3.3°C-3.4°C90%1025.0hPa0.0mm0.0km/h0.0km/h
03:10-3.4°C-3.3°C-3.4°C90%1025.0hPa0.0mm0.0km/h0.0km/h
03:15-3.3°C-3.3°C-3.3°C90%1024.9hPa0.0mm0.0km/h0.0km/h
03:20-3.2°C-3.1°C-3.3°C90%1024.9hPa0.0mm1.3km/h5.0km/h
03:25-3.1°C-3.0°C-3.1°C91%1024.9hPa0.0mm0.1km/h0.0km/h
03:30-3.1°C-3.1°C-3.1°C90%1024.8hPa0.0mm0.0km/h0.0km/h
03:35-3.1°C-3.1°C-3.1°C90%1024.8hPa0.0mm0.3km/h1.8km/h
03:40-3.1°C-3.1°C-3.2°C90%1024.8hPa0.0mm0.0km/h0.0km/h
03:45-3.2°C-3.1°C-3.2°C90%1024.7hPa0.0mm0.0km/h0.0km/h
03:50-3.1°C-3.1°C-3.2°C90%1024.7hPa0.0mm0.0km/h0.0km/h
03:55-3.1°C-3.0°C-3.1°C91%1024.8hPa0.0mm0.0km/h0.0km/h
04:00-3.1°C-3.0°C-3.2°C90%1024.7hPa0.0mm0.0km/h0.0km/h
04:05-3.2°C-3.1°C-3.2°C90%1024.7hPa0.0mm0.0km/h0.0km/h
04:10-3.1°C-3.1°C-3.2°C91%1024.7hPa0.0mm0.0km/h0.0km/h
04:15-3.2°C-3.1°C-3.3°C90%1024.7hPa0.0mm0.0km/h0.0km/h
04:20-3.3°C-3.3°C-3.4°C90%1024.8hPa0.0mm0.0km/h0.0km/h
04:25-3.4°C-3.4°C-3.5°C90%1024.7hPa0.0mm0.0km/h0.0km/h
04:30-3.4°C-3.3°C-3.5°C90%1024.7hPa0.0mm0.0km/h0.0km/h
04:35-3.4°C-3.3°C-3.4°C91%1024.7hPa0.0mm0.0km/h0.0km/h
04:40-3.4°C-3.4°C-3.4°C90%1024.7hPa0.0mm0.0km/h0.0km/h
04:45-3.4°C-3.4°C-3.4°C90%1024.8hPa0.0mm0.0km/h0.0km/h
04:50-3.4°C-3.3°C-3.4°C91%1024.8hPa0.0mm0.0km/h0.0km/h
04:55-3.5°C-3.4°C-3.6°C90%1024.8hPa0.0mm0.0km/h0.0km/h
05:00-3.6°C-3.6°C-3.7°C90%1024.7hPa0.0mm0.0km/h0.0km/h
05:05-3.6°C-3.5°C-3.6°C90%1024.7hPa0.0mm0.0km/h0.0km/h
05:10-3.6°C-3.5°C-3.7°C90%1024.8hPa0.0mm0.0km/h0.0km/h
05:15-3.7°C-3.6°C-3.7°C90%1024.7hPa0.0mm0.0km/h0.0km/h
05:20-3.8°C-3.7°C-3.8°C90%1024.8hPa0.0mm0.0km/h0.0km/h